createdAt,value
2022-08-19T00:01:52.839Z,9.43
2022-08-19T00:04:43.539Z,7.60
2022-08-19T00:07:33.296Z,9.75
2022-08-19T00:10:23.403Z,9.00
2022-08-19T00:13:13.833Z,12.23
2022-08-19T00:16:05.618Z,17.83
2022-08-19T00:18:57.610Z,11.07
2022-08-19T00:21:47.359Z,10.90
2022-08-19T00:24:37.622Z,10.63
2022-08-19T00:27:27.706Z,9.68
2022-08-19T00:30:17.583Z,10.68
2022-08-19T00:33:07.234Z,10.18
2022-08-19T00:35:58.665Z,11.25
2022-08-19T00:38:48.825Z,11.25
2022-08-19T00:41:39.093Z,13.00
2022-08-19T00:44:30.496Z,12.35
2022-08-19T00:47:20.671Z,12.52
2022-08-19T00:50:13.166Z,12.68
2022-08-19T00:53:06.435Z,13.45
2022-08-19T00:55:59.709Z,13.40
2022-08-19T00:58:49.657Z,18.58
2022-08-19T01:01:41.024Z,15.32
2022-08-19T01:04:30.709Z,20.63
2022-08-19T01:07:21.005Z,11.27
2022-08-19T01:10:14.468Z,10.55
2022-08-19T01:13:05.398Z,9.75
2022-08-19T01:16:00.770Z,9.02
2022-08-19T01:18:50.237Z,9.52
2022-08-19T01:22:14.177Z,11.10
2022-08-19T01:25:08.880Z,11.20
2022-08-19T01:28:10.885Z,11.60
2022-08-19T01:31:01.286Z,11.57
2022-08-19T01:34:00.918Z,10.25
2022-08-19T01:36:51.551Z,10.90
2022-08-19T01:39:43.530Z,9.80
2022-08-19T01:42:34.439Z,9.80
2022-08-19T01:45:29.366Z,11.18
2022-08-19T01:48:18.794Z,8.95
2022-08-19T01:51:10.368Z,8.90
2022-08-19T01:54:00.320Z,9.93
2022-08-19T01:56:51.304Z,9.20
2022-08-19T01:59:43.065Z,9.20
2022-08-19T02:02:33.085Z,7.50
2022-08-19T02:05:23.871Z,8.10
2022-08-19T02:08:13.951Z,8.68
2022-08-19T02:11:03.681Z,8.18
2022-08-19T02:13:53.631Z,8.77
2022-08-19T02:16:43.312Z,8.63
2022-08-19T02:19:34.874Z,8.60
2022-08-19T02:22:26.567Z,7.13
2022-08-19T02:25:17.277Z,7.72
2022-08-19T02:28:07.525Z,12.15
2022-08-19T02:30:57.389Z,11.98
2022-08-19T02:33:48.210Z,11.32
2022-08-19T02:36:37.872Z,9.30
2022-08-19T02:39:32.861Z,10.00
2022-08-19T02:42:23.102Z,9.38
2022-08-19T02:45:13.359Z,10.63
2022-08-19T02:48:03.464Z,8.35
2022-08-19T02:51:02.721Z,9.30
2022-08-19T02:53:53.174Z,10.02
2022-08-19T02:56:43.810Z,8.60
2022-08-19T02:59:34.960Z,9.35
2022-08-19T03:02:25.270Z,10.25
2022-08-19T03:05:15.614Z,8.63
2022-08-19T03:08:06.483Z,10.48
2022-08-19T03:10:57.044Z,9.73
2022-08-19T03:13:46.988Z,9.70
2022-08-19T03:16:43.329Z,12.60
2022-08-19T03:19:34.382Z,12.07
2022-08-19T03:22:23.388Z,10.85
2022-08-19T03:25:14.395Z,11.43
2022-08-19T03:28:04.023Z,10.07
2022-08-19T03:31:03.522Z,10.02
2022-08-19T03:33:54.683Z,9.52
2022-08-19T03:36:45.152Z,9.52
2022-08-19T03:39:35.150Z,10.63
2022-08-19T03:42:38.734Z,12.10
2022-08-19T03:45:37.857Z,11.15
2022-08-19T03:48:29.901Z,9.05
2022-08-19T03:51:34.135Z,7.82
2022-08-19T03:54:25.291Z,7.47
2022-08-19T03:57:17.985Z,7.68
2022-08-19T04:00:13.380Z,7.28
2022-08-19T04:03:03.827Z,8.00
2022-08-19T04:05:53.929Z,8.10
2022-08-19T04:08:45.892Z,8.75
2022-08-19T04:11:44.957Z,8.95
2022-08-19T04:14:36.836Z,9.48
2022-08-19T04:17:26.317Z,9.75
2022-08-19T04:20:16.632Z,11.10
2022-08-19T04:23:08.642Z,9.75
2022-08-19T04:25:59.238Z,12.30
2022-08-19T04:28:50.254Z,10.75
2022-08-19T04:31:40.257Z,10.95
2022-08-19T04:34:31.951Z,10.68
2022-08-19T04:37:22.357Z,10.32
2022-08-19T04:40:31.405Z,10.90
2022-08-19T04:43:20.800Z,10.60
2022-08-19T04:46:12.608Z,10.77
2022-08-19T04:49:24.593Z,11.98
2022-08-19T04:52:14.151Z,12.63
2022-08-19T04:55:03.493Z,12.65
2022-08-19T04:57:53.776Z,13.02
2022-08-19T05:00:43.868Z,12.25
2022-08-19T05:03:35.823Z,12.90
2022-08-19T05:06:27.803Z,14.25
2022-08-19T05:09:18.105Z,13.20
2022-08-19T05:12:08.652Z,12.60
2022-08-19T05:15:00.080Z,14.55
2022-08-19T05:18:09.501Z,13.85
2022-08-19T05:21:19.730Z,15.18
2022-08-19T05:24:11.215Z,13.57
2022-08-19T05:27:01.079Z,14.15
2022-08-19T05:29:51.033Z,13.38
2022-08-19T05:32:42.127Z,13.50
2022-08-19T05:35:34.726Z,11.98
2022-08-19T05:38:25.357Z,13.23
2022-08-19T05:41:17.668Z,13.45
2022-08-19T05:44:11.436Z,14.68
2022-08-19T05:47:07.019Z,12.95
2022-08-19T05:49:57.098Z,12.00
2022-08-19T05:52:50.687Z,13.65
2022-08-19T05:55:41.018Z,13.85
2022-08-19T05:58:31.057Z,14.50
2022-08-19T06:01:21.684Z,14.10
2022-08-19T06:04:12.037Z,15.80
2022-08-19T06:07:12.282Z,14.75
2022-08-19T06:10:02.324Z,17.70
2022-08-19T06:12:53.421Z,13.68
2022-08-19T06:30:15.367Z,11.18
2022-08-19T06:33:50.209Z,15.80
2022-08-19T06:44:28.663Z,16.88
2022-08-19T06:48:08.097Z,17.20
2022-08-19T06:51:02.400Z,16.73
2022-08-19T06:53:59.189Z,19.45
2022-08-19T06:56:50.045Z,20.67
2022-08-19T06:59:39.972Z,19.95
2022-08-19T07:02:31.926Z,20.95
2022-08-19T07:05:21.558Z,17.55
2022-08-19T07:08:11.684Z,18.23
2022-08-19T07:11:01.621Z,16.92
2022-08-19T07:13:59.712Z,19.52
2022-08-19T07:16:51.873Z,15.85
2022-08-19T07:19:42.391Z,25.58
2022-08-19T07:22:33.008Z,21.88
2022-08-19T07:25:23.217Z,13.55
2022-08-19T07:28:25.116Z,19.23
2022-08-19T07:31:23.189Z,20.17
2022-08-19T07:34:17.062Z,24.85
2022-08-19T07:37:09.343Z,24.13
2022-08-19T07:39:59.083Z,23.48
2022-08-19T07:42:52.018Z,27.02
2022-08-19T07:45:42.518Z,26.75
2022-08-19T07:48:33.595Z,25.08
2022-08-19T07:51:36.146Z,25.45
2022-08-19T07:54:29.436Z,25.42
2022-08-19T07:57:21.610Z,22.70
2022-08-19T08:00:11.333Z,24.48
2022-08-19T08:03:04.035Z,24.98
2022-08-19T08:06:12.098Z,22.42
2022-08-19T08:09:16.502Z,23.85
2022-08-19T08:12:30.809Z,25.10
2022-08-19T08:15:23.582Z,24.20
2022-08-19T08:18:14.944Z,24.55
2022-08-19T08:21:03.966Z,23.38
2022-08-19T08:23:56.202Z,21.05
2022-08-19T08:26:46.745Z,22.67
2022-08-19T08:29:47.385Z,22.73
2022-08-19T08:32:37.076Z,20.90
2022-08-19T08:35:31.241Z,21.17
2022-08-19T08:38:20.832Z,20.73
2022-08-19T08:41:34.315Z,21.42
2022-08-19T08:44:32.055Z,22.20
2022-08-19T08:47:23.343Z,20.30
2022-08-19T08:50:24.633Z,42.95
2022-08-19T08:53:18.029Z,22.67
2022-08-19T08:56:19.816Z,21.85
2022-08-19T08:59:24.147Z,19.88
2022-08-19T09:02:15.852Z,19.90
2022-08-19T09:05:06.117Z,18.23
2022-08-19T09:08:00.412Z,19.05
2022-08-19T09:10:56.125Z,19.95
2022-08-19T09:14:04.518Z,21.23
2022-08-19T09:16:54.559Z,20.30
2022-08-19T09:20:19.326Z,18.40
2022-08-19T09:23:10.436Z,16.50
2022-08-19T09:26:00.655Z,18.25
2022-08-19T09:28:52.579Z,17.35
2022-08-19T09:31:43.374Z,19.55
2022-08-19T09:34:32.998Z,18.90
2022-08-19T09:37:28.108Z,18.90
2022-08-19T09:40:19.826Z,19.85
2022-08-19T09:43:13.401Z,22.55
2022-08-19T09:46:04.557Z,29.80
2022-08-19T09:48:57.183Z,26.20
2022-08-19T09:51:51.222Z,21.88
2022-08-19T09:54:41.665Z,19.45
2022-08-19T09:57:33.763Z,20.98
2022-08-19T10:00:23.447Z,22.77
2022-08-19T10:03:14.644Z,21.58
2022-08-19T10:06:06.221Z,15.95
2022-08-19T10:09:08.977Z,16.98
2022-08-19T10:11:59.116Z,14.65
2022-08-19T10:14:53.858Z,15.07
2022-08-19T10:17:48.241Z,14.57
2022-08-19T10:20:45.903Z,12.95
2022-08-19T10:23:43.807Z,13.32
2022-08-19T10:26:39.485Z,12.32
2022-08-19T10:29:32.693Z,13.10
2022-08-19T10:32:33.651Z,12.80
2022-08-19T10:35:24.126Z,13.32
2022-08-19T10:38:16.915Z,14.90
2022-08-19T10:41:21.538Z,13.63
2022-08-19T10:44:16.038Z,15.00
2022-08-19T10:47:18.007Z,16.58
2022-08-19T10:50:33.185Z,18.13
2022-08-19T10:53:27.775Z,19.17
2022-08-19T10:56:35.378Z,18.05
2022-08-19T10:59:35.963Z,19.67
2022-08-19T11:02:26.397Z,18.00
2022-08-19T11:05:17.029Z,27.95
2022-08-19T11:08:23.131Z,31.90
2022-08-19T11:11:14.017Z,36.83
2022-08-19T11:14:04.605Z,38.33
2022-08-19T11:16:58.136Z,40.65
2022-08-19T11:19:49.228Z,39.60
2022-08-19T11:22:41.643Z,38.53
2022-08-19T11:25:34.814Z,35.38
2022-08-19T11:28:24.438Z,35.75
2022-08-19T11:31:22.351Z,34.75
2022-08-19T11:34:22.359Z,33.75
2022-08-19T11:37:12.511Z,34.10
2022-08-19T11:40:02.757Z,31.48
2022-08-19T11:42:59.380Z,29.77
2022-08-19T11:45:52.524Z,33.58
2022-08-19T11:48:42.653Z,34.97
2022-08-19T11:51:33.308Z,36.20
2022-08-19T11:54:22.581Z,35.75
2022-08-19T11:57:12.309Z,35.75
2022-08-19T12:00:04.938Z,34.83
2022-08-19T12:02:57.152Z,35.60
2022-08-19T12:05:47.512Z,38.70
2022-08-19T12:08:37.410Z,37.63
2022-08-19T12:11:27.697Z,34.00
2022-08-19T12:14:20.982Z,36.13
2022-08-19T12:17:11.487Z,34.38
2022-08-19T12:20:01.689Z,34.80
2022-08-19T12:22:50.846Z,33.20
2022-08-19T12:26:08.056Z,32.80
2022-08-19T12:28:58.385Z,31.50
2022-08-19T12:31:48.332Z,33.75
2022-08-19T12:34:39.518Z,33.28
2022-08-19T12:37:28.887Z,31.33
2022-08-19T12:40:21.431Z,33.38
2022-08-19T12:43:14.751Z,31.27
2022-08-19T12:46:06.523Z,30.67
2022-08-19T12:48:59.938Z,31.75
2022-08-19T12:51:55.074Z,33.17
2022-08-19T12:54:45.756Z,35.20
2022-08-19T12:57:36.942Z,32.88
2022-08-19T13:00:27.152Z,31.95
2022-08-19T13:03:16.635Z,31.52
2022-08-19T13:06:08.563Z,31.60
2022-08-19T13:08:59.733Z,35.63
2022-08-19T13:11:49.604Z,32.15
2022-08-19T13:14:40.329Z,26.45
2022-08-19T13:17:31.098Z,26.50
2022-08-19T13:20:22.291Z,24.80
2022-08-19T13:23:12.516Z,26.30
2022-08-19T13:26:04.628Z,24.75
2022-08-19T13:29:12.546Z,26.23
2022-08-19T13:32:20.871Z,26.75
2022-08-19T13:35:13.775Z,27.63
2022-08-19T13:38:11.836Z,29.67
2022-08-19T13:41:12.112Z,31.17
2022-08-19T13:44:05.771Z,29.73
2022-08-19T13:46:55.795Z,30.35
2022-08-19T13:49:45.684Z,29.60
2022-08-19T13:52:35.692Z,31.65
2022-08-19T13:55:26.469Z,30.63
2022-08-19T13:58:16.791Z,31.60
2022-08-19T14:01:08.401Z,33.67
2022-08-19T14:03:58.121Z,35.38
2022-08-19T14:06:51.824Z,37.55
2022-08-19T14:09:41.953Z,36.55
2022-08-19T14:12:34.434Z,35.90
2022-08-19T14:15:24.333Z,33.55
2022-08-19T14:18:14.838Z,34.38
2022-08-19T14:21:06.998Z,32.38
2022-08-19T14:23:57.296Z,33.03
2022-08-19T14:26:46.975Z,31.15
2022-08-19T14:29:37.085Z,31.48
2022-08-19T14:32:29.276Z,31.77
2022-08-19T14:35:20.352Z,30.85
2022-08-19T14:38:28.059Z,31.08
2022-08-19T14:41:24.491Z,30.95
2022-08-19T14:44:14.981Z,30.95
2022-08-19T14:47:04.426Z,27.90
2022-08-19T14:49:54.434Z,26.95
2022-08-19T14:52:43.781Z,27.80
2022-08-19T14:55:34.628Z,25.27
2022-08-19T14:58:28.571Z,24.92
2022-08-19T15:01:19.906Z,22.45
2022-08-19T15:04:09.494Z,24.50
2022-08-19T15:07:00.051Z,24.13
2022-08-19T15:09:53.113Z,23.90
2022-08-19T15:12:42.767Z,23.83
2022-08-19T15:15:32.453Z,21.92
2022-08-19T15:18:22.772Z,20.27
2022-08-19T15:21:14.722Z,19.40
2022-08-19T15:24:07.379Z,18.60
2022-08-19T15:26:58.048Z,19.00
2022-08-19T15:29:51.175Z,17.42
2022-08-19T15:32:48.955Z,16.75
2022-08-19T15:35:38.831Z,16.45
2022-08-19T15:38:28.670Z,16.42
2022-08-19T15:41:25.002Z,17.23
2022-08-19T15:44:17.755Z,18.10
2022-08-19T15:47:08.143Z,17.42
2022-08-19T15:50:00.615Z,17.92
2022-08-19T15:52:54.056Z,17.52
2022-08-19T15:55:47.536Z,17.77
2022-08-19T15:58:54.817Z,17.60
2022-08-19T16:02:04.258Z,17.55
2022-08-19T16:05:13.740Z,18.65
2022-08-19T16:08:05.834Z,19.77
2022-08-19T16:10:55.246Z,19.55
2022-08-19T16:13:44.846Z,19.88
2022-08-19T16:16:36.011Z,18.35
2022-08-19T16:19:26.319Z,18.83
2022-08-19T16:22:18.096Z,18.38
2022-08-19T16:25:09.937Z,17.63
2022-08-19T16:28:06.475Z,18.88
2022-08-19T16:30:58.135Z,19.52
2022-08-19T16:33:47.898Z,19.95
2022-08-19T16:36:37.092Z,19.45
2022-08-19T16:39:26.640Z,19.45
2022-08-19T16:42:16.658Z,18.85
2022-08-19T16:45:06.746Z,20.27
2022-08-19T16:47:58.524Z,19.23
2022-08-19T16:50:49.756Z,19.52
2022-08-19T16:53:39.960Z,19.73
2022-08-19T16:56:30.276Z,19.60
2022-08-19T16:59:19.396Z,19.63
2022-08-19T17:02:09.782Z,18.65
2022-08-19T17:05:00.175Z,18.75
2022-08-19T17:07:51.872Z,18.38
2022-08-19T17:10:45.700Z,18.30
2022-08-19T17:13:47.952Z,19.10
2022-08-19T17:16:38.649Z,19.40
2022-08-19T17:19:29.598Z,19.20
2022-08-19T17:22:19.114Z,18.55
2022-08-19T17:25:09.191Z,18.83
2022-08-19T17:27:59.742Z,19.25
2022-08-19T17:30:49.595Z,17.42
2022-08-19T17:33:41.244Z,18.42
2022-08-19T17:36:34.332Z,18.02
2022-08-19T17:39:23.975Z,17.55
2022-08-19T17:42:13.338Z,18.92
2022-08-19T17:45:03.656Z,17.48
2022-08-19T17:47:53.110Z,18.08
2022-08-19T17:50:43.992Z,17.73
2022-08-19T17:53:37.793Z,17.90
2022-08-19T17:56:30.077Z,18.17
2022-08-19T17:59:19.333Z,18.42
2022-08-19T18:02:11.295Z,18.27
2022-08-19T18:05:01.486Z,18.65
2022-08-19T18:07:53.676Z,18.73
2022-08-19T18:10:43.748Z,18.25
2022-08-19T18:13:32.824Z,18.30
2022-08-19T18:16:23.579Z,20.20
2022-08-19T18:19:13.228Z,18.70
2022-08-19T18:22:02.361Z,19.90
2022-08-19T18:24:52.629Z,19.30
2022-08-19T18:27:44.700Z,20.38
2022-08-19T18:30:35.699Z,20.20
2022-08-19T18:33:25.145Z,20.90
2022-08-19T18:36:15.363Z,21.80
2022-08-19T18:39:29.225Z,23.42
2022-08-19T18:42:38.914Z,23.80
2022-08-19T18:45:46.849Z,25.35
2022-08-19T18:48:54.825Z,27.20
2022-08-19T18:51:47.729Z,28.15
2022-08-19T18:54:38.163Z,28.10
2022-08-19T18:57:27.823Z,28.08
2022-08-19T19:00:28.528Z,32.80
2022-08-19T19:03:17.723Z,35.63
2022-08-19T19:06:08.526Z,36.95
2022-08-19T19:08:58.740Z,39.35
2022-08-19T19:11:59.717Z,38.75
2022-08-19T19:14:50.227Z,35.92
2022-08-19T19:17:41.257Z,31.85
2022-08-19T19:20:36.375Z,31.73
2022-08-19T19:23:26.704Z,30.77
2022-08-19T19:26:16.310Z,30.23
2022-08-19T19:29:06.231Z,29.08
2022-08-19T19:31:57.391Z,27.55
2022-08-19T19:34:47.599Z,29.13
2022-08-19T19:37:37.070Z,28.00
2022-08-19T19:40:26.468Z,29.75
2022-08-19T19:43:19.576Z,29.83
2022-08-19T19:46:09.560Z,28.95
2022-08-19T19:49:00.275Z,28.90
2022-08-19T19:51:50.550Z,29.33
2022-08-19T19:54:39.737Z,32.25
2022-08-19T19:57:44.392Z,28.45
2022-08-19T20:00:33.591Z,26.77
2022-08-19T20:03:23.327Z,27.00
2022-08-19T20:06:14.371Z,24.48
2022-08-19T20:09:12.753Z,24.77
2022-08-19T20:12:03.728Z,24.73
2022-08-19T20:14:53.482Z,25.77
2022-08-19T20:17:43.973Z,27.65
2022-08-19T20:20:34.636Z,27.52
2022-08-19T20:23:24.865Z,28.13
2022-08-19T20:26:24.228Z,30.40
2022-08-19T20:29:39.168Z,29.77
2022-08-19T20:32:31.592Z,31.58
2022-08-19T20:35:22.815Z,28.90
2022-08-19T20:38:13.613Z,31.13
2022-08-19T20:41:04.576Z,31.88
2022-08-19T20:43:53.692Z,31.45
2022-08-19T20:46:43.150Z,32.78
2022-08-19T20:49:45.347Z,33.22
2022-08-19T20:52:38.966Z,34.60
2022-08-19T20:55:29.711Z,36.33
2022-08-19T20:58:22.507Z,37.67
2022-08-19T21:01:12.222Z,38.35
2022-08-19T21:04:01.654Z,41.53
2022-08-19T21:06:53.535Z,42.45
2022-08-19T21:09:43.367Z,45.60
2022-08-19T21:12:33.088Z,43.85
2022-08-19T21:15:23.077Z,47.58
2022-08-19T21:18:16.823Z,49.40
2022-08-19T21:21:06.586Z,49.45
2022-08-19T21:23:56.711Z,48.80
2022-08-19T21:26:49.451Z,51.75
2022-08-19T21:29:41.890Z,52.58
2022-08-19T21:32:30.995Z,56.25
2022-08-19T21:35:21.068Z,58.97
2022-08-19T21:38:10.572Z,56.83
2022-08-19T21:41:06.214Z,60.88
2022-08-19T21:43:56.138Z,65.40
2022-08-19T21:46:45.392Z,67.78
2022-08-19T21:49:40.232Z,64.78
2022-08-19T21:52:33.160Z,63.55
2022-08-19T21:55:23.407Z,62.38
2022-08-19T21:58:13.665Z,61.38
2022-08-19T22:01:07.777Z,63.42
2022-08-19T22:03:57.218Z,62.20
2022-08-19T22:06:49.112Z,62.40
2022-08-19T22:09:39.702Z,60.47
2022-08-19T22:12:34.926Z,63.80
2022-08-19T22:15:25.409Z,61.85
2022-08-19T22:18:15.087Z,62.25
2022-08-19T22:21:11.630Z,60.25
2022-08-19T22:24:04.255Z,65.53
2022-08-19T22:26:53.872Z,67.05
2022-08-19T22:29:44.186Z,65.25
2022-08-19T22:32:33.341Z,66.70
2022-08-19T22:35:25.790Z,63.20
2022-08-19T22:38:16.966Z,66.68
2022-08-19T22:41:09.492Z,66.22
2022-08-19T22:43:59.555Z,65.68
2022-08-19T22:46:50.200Z,66.85
2022-08-19T22:49:39.950Z,62.10
2022-08-19T22:52:29.345Z,65.32
2022-08-19T22:55:19.041Z,60.35
2022-08-19T22:58:08.606Z,62.15
2022-08-19T23:00:59.274Z,58.80
2022-08-19T23:03:48.901Z,55.58
2022-08-19T23:06:41.873Z,54.53
2022-08-19T23:09:31.667Z,49.00
2022-08-19T23:12:39.264Z,52.13
2022-08-19T23:15:32.065Z,54.05
2022-08-19T23:18:21.495Z,52.75
2022-08-19T23:21:11.138Z,51.33
2022-08-19T23:24:01.098Z,47.58
2022-08-19T23:27:08.635Z,49.28
2022-08-19T23:30:18.930Z,55.15
2022-08-19T23:33:46.627Z,52.47
2022-08-19T23:36:38.060Z,48.75
2022-08-19T23:39:31.094Z,49.65
2022-08-19T23:42:21.961Z,53.47
2022-08-19T23:45:11.968Z,51.42
2022-08-19T23:48:02.544Z,47.33
2022-08-19T23:50:53.416Z,46.15
2022-08-19T23:53:43.739Z,44.03
2022-08-19T23:56:33.488Z,45.28
2022-08-19T23:59:22.898Z,48.58
